Time,TemperatureF,DewpointF,PressureIn,WindDirection,WindDirectionDegrees,WindSpeedMPH,WindSpeedGustMPH,Humidity,HourlyPrecipIn,Conditions,Clouds,dailyrainin,SolarRadiationWatts/m^2,SoftwareType,DateUTC
2013-05-13 00:01:00,53.3,-99.9,29.97,SSE,148,1.0,3.8,30,0.00,,,0.00,0,,2013-05-13 05:01:00,
2013-05-13 00:11:00,53.5,-99.9,29.97,SE,142,3.0,5.4,29,0.00,,,0.00,0.017,,2013-05-13 05:11:00,
2013-05-13 00:21:00,53.4,-99.9,29.97,NE,44,0.0,2.1,29,0.00,,,0.00,0,,2013-05-13 05:21:00,
2013-05-13 00:31:00,52.7,-99.9,29.97,SSW,194,3.0,3.8,31,0.00,,,0.00,0.01,,2013-05-13 05:31:00,
2013-05-13 00:41:00,52.3,-99.9,29.97,SSE,152,4.0,7.1,31,0.00,,,0.00,0.02,,2013-05-13 05:41:00,
2013-05-13 00:51:00,52.0,-99.9,29.96,South,171,4.0,8.8,32,0.00,,,0.00,0.01,,2013-05-13 05:51:00,
2013-05-13 01:01:00,51.5,-99.9,29.96,South,169,3.0,7.1,33,0.00,,,0.00,0.003,,2013-05-13 06:01:00,
2013-05-13 01:11:00,51.5,-99.9,29.95,SE,132,2.0,5.4,33,0.00,,,0.00,0.014,,2013-05-13 06:11:00,
2013-05-13 01:21:00,51.7,-99.9,29.95,SSW,196,4.0,5.4,32,0.00,,,0.00,0.027,,2013-05-13 06:21:00,
2013-05-13 01:31:00,52.1,-99.9,29.94,South,175,2.0,5.4,32,0.00,,,0.00,0.041,,2013-05-13 06:31:00,
2013-05-13 01:41:00,52.5,-99.9,29.94,South,172,4.0,7.1,31,0.00,,,0.00,0.014,,2013-05-13 06:41:00,
2013-05-13 01:51:00,52.8,-99.9,29.94,South,186,3.0,5.4,31,0.00,,,0.00,0.027,,2013-05-13 06:51:00,
2013-05-13 02:01:00,52.9,-99.9,29.95,SSE,163,3.0,5.4,31,0.00,,,0.00,0.014,,2013-05-13 07:01:00,
2013-05-13 02:11:00,53.0,-99.9,29.95,SSE,164,5.0,7.1,31,0.00,,,0.00,0.017,,2013-05-13 07:11:00,
2013-05-13 02:21:00,52.9,-99.9,29.94,SSE,168,5.0,7.1,31,0.00,,,0.00,0.027,,2013-05-13 07:21:00,
2013-05-13 02:31:00,52.8,-99.9,29.94,WSW,237,6.0,8.8,32,0.00,,,0.00,0,,2013-05-13 07:31:00,
2013-05-13 02:41:00,52.6,-99.9,29.94,South,179,4.0,7.1,32,0.00,,,0.00,0.024,,2013-05-13 07:41:00,
2013-05-13 02:51:00,52.6,-99.9,29.94,South,174,3.0,5.4,33,0.00,,,0.00,0.037,,2013-05-13 07:51:00,
2013-05-13 03:01:00,52.6,-99.9,29.94,South,189,6.0,10.5,33,0.00,,,0.00,0.034,,2013-05-13 08:01:00,
2013-05-13 03:11:00,52.4,-99.9,29.93,South,177,4.0,7.1,34,0.00,,,0.00,0.003,,2013-05-13 08:11:00,
2013-05-13 03:21:00,52.4,-99.9,29.93,South,174,4.0,7.1,34,0.00,,,0.00,0.01,,2013-05-13 08:21:00,
2013-05-13 03:31:00,52.3,-99.9,29.93,South,181,3.0,5.4,35,0.00,,,0.00,0.02,,2013-05-13 08:31:00,
2013-05-13 03:41:00,52.5,-99.9,29.93,South,188,4.0,7.1,35,0.00,,,0.00,0.003,,2013-05-13 08:41:00,
2013-05-13 03:51:00,52.6,-99.9,29.92,South,181,3.0,5.4,36,0.00,,,0.00,0.007,,2013-05-13 08:51:00,
2013-05-13 04:01:00,52.6,-99.9,29.92,South,185,4.0,7.1,36,0.00,,,0.00,0.007,,2013-05-13 09:01:00,
2013-05-13 04:11:00,52.8,-99.9,29.91,South,185,4.0,7.1,37,0.00,,,0.00,0,,2013-05-13 09:11:00,
2013-05-13 04:21:00,52.8,-99.9,29.91,South,176,5.0,10.5,37,0.00,,,0.00,0.02,,2013-05-13 09:21:00,
2013-05-13 04:31:00,52.6,-99.9,29.90,South,172,6.0,8.8,37,0.00,,,0.00,0.024,,2013-05-13 09:31:00,
2013-05-13 04:41:00,53.0,-99.9,29.90,SSE,168,4.0,7.1,37,0.00,,,0.00,0,,2013-05-13 09:41:00,
2013-05-13 04:51:00,52.9,-99.9,29.89,SSE,163,2.0,3.8,38,0.00,,,0.00,0,,2013-05-13 09:51:00,
2013-05-13 05:01:00,52.9,-99.9,29.89,SSW,207,4.0,7.1,38,0.00,,,0.00,0.017,,2013-05-13 10:01:00,
2013-05-13 05:11:00,52.8,-99.9,29.89,South,186,5.0,8.8,39,0.00,,,0.00,0.01,,2013-05-13 10:11:00,
2013-05-13 05:21:00,52.9,-99.9,29.88,SSE,163,6.0,8.8,39,0.00,,,0.00,0.024,,2013-05-13 10:21:00,
2013-05-13 05:31:00,52.9,-99.9,29.87,South,176,4.0,7.1,39,0.00,,,0.00,0.112,,2013-05-13 10:31:00,
2013-05-13 05:41:00,52.9,-99.9,29.86,SE,135,7.0,13.8,39,0.00,,,0.00,0.203,,2013-05-13 10:41:00,
2013-05-13 05:51:00,53.0,-99.9,29.85,South,186,5.0,8.8,40,0.00,,,0.00,0.203,,2013-05-13 10:51:00,
2013-05-13 06:01:00,53.0,-99.9,29.85,SSW,212,4.0,5.4,40,0.00,,,0.00,1.015,,2013-05-13 11:01:00,
2013-05-13 06:11:00,53.0,-99.9,29.85,South,169,6.0,13.8,39,0.00,,,0.00,6.444,,2013-05-13 11:11:00,
2013-05-13 06:21:00,52.9,-99.9,29.84,South,171,5.0,7.1,40,0.00,,,0.00,8.18,,2013-05-13 11:21:00,
2013-05-13 06:31:00,52.7,-99.9,29.83,SE,129,6.0,10.5,40,0.00,,,0.00,18.09,,2013-05-13 11:31:00,
2013-05-13 06:41:00,52.6,-99.9,29.81,SE,145,4.0,7.1,41,0.00,,,0.00,26.73,,2013-05-13 11:41:00,
2013-05-13 06:51:00,52.8,-99.9,29.81,SSW,203,6.0,8.8,41,0.00,,,0.00,26.4,,2013-05-13 11:51:00,
2013-05-13 07:01:00,53.1,-99.9,29.81,SSE,168,7.0,10.5,40,0.00,,,0.00,34.93,,2013-05-13 12:01:00,
2013-05-13 07:11:00,53.3,-99.9,29.80,South,178,7.0,12.1,39,0.00,,,0.00,46.96,,2013-05-13 12:11:00,
2013-05-13 07:21:00,53.5,-99.9,29.80,South,178,7.0,12.1,39,0.00,,,0.00,49.21,,2013-05-13 12:21:00,
2013-05-13 07:31:00,53.7,-99.9,29.80,South,173,5.0,8.8,39,0.00,,,0.00,25.39,,2013-05-13 12:31:00,
2013-05-13 07:41:00,54.0,-99.9,29.79,South,186,8.0,12.1,39,0.00,,,0.00,67.26,,2013-05-13 12:41:00,
2013-05-13 07:51:00,54.4,-99.9,29.79,SSW,192,8.0,13.8,38,0.00,,,0.00,120.9,,2013-05-13 12:51:00,
2013-05-13 08:01:00,54.8,-99.9,29.79,SE,142,7.0,10.5,38,0.00,,,0.00,137.2,,2013-05-13 13:01:00,
2013-05-13 08:11:00,55.3,-99.9,29.79,SSE,161,4.0,8.8,38,0.00,,,0.00,149.9,,2013-05-13 13:11:00,
2013-05-13 08:21:00,56.0,-99.9,29.79,East,94,4.0,8.8,38,0.00,,,0.00,171.8,,2013-05-13 13:21:00,
2013-05-13 08:31:00,56.4,-99.9,29.78,SSE,151,7.0,10.5,38,0.00,,,0.00,177.3,,2013-05-13 13:31:00,
2013-05-13 08:41:00,56.8,-99.9,29.77,SSE,164,6.0,13.8,38,0.00,,,0.00,201.2,,2013-05-13 13:41:00,
2013-05-13 08:51:00,57.4,-99.9,29.76,SSW,192,8.0,13.8,38,0.00,,,0.00,218.4,,2013-05-13 13:51:00,
2013-05-13 09:01:00,58.0,-99.9,29.76,SSE,162,7.0,10.5,37,0.00,,,0.00,223.6,,2013-05-13 14:01:00,
2013-05-13 09:11:00,58.5,-99.9,29.76,South,182,6.0,8.8,37,0.00,,,0.00,239.4,,2013-05-13 14:11:00,
2013-05-13 09:21:00,59.2,-99.9,29.76,SSW,198,9.0,17.2,37,0.00,,,0.00,221.6,,2013-05-13 14:21:00,
2013-05-13 09:31:00,59.5,-99.9,29.76,South,189,8.0,12.1,38,0.00,,,0.00,260.5,,2013-05-13 14:31:00,
2013-05-13 09:41:00,59.8,-99.9,29.75,South,188,8.0,12.1,38,0.00,,,0.00,312.8,,2013-05-13 14:41:00,
2013-05-13 09:51:00,60.5,-99.9,29.75,SSW,204,7.0,12.1,38,0.00,,,0.00,352.2,,2013-05-13 14:51:00,
2013-05-13 10:01:00,60.8,-99.9,29.73,South,178,10.0,13.8,38,0.00,,,0.00,388.6,,2013-05-13 15:01:00,
2013-05-13 10:11:00,60.8,-99.9,29.73,South,186,10.0,15.5,38,0.00,,,0.00,393.2,,2013-05-13 15:11:00,
2013-05-13 10:21:00,62.0,-99.9,29.73,South,188,9.0,12.1,37,0.00,,,0.00,402.2,,2013-05-13 15:21:00,
2013-05-13 10:31:00,62.5,-99.9,29.72,SSW,212,11.0,15.5,37,0.00,,,0.00,408.2,,2013-05-13 15:31:00,
2013-05-13 10:41:00,63.5,-99.9,29.73,South,185,10.0,15.5,36,0.00,,,0.00,559.2,,2013-05-13 15:41:00,
2013-05-13 10:51:00,64.5,-99.9,29.71,South,171,6.0,10.5,36,0.00,,,0.00,500.8,,2013-05-13 15:51:00,
2013-05-13 11:01:00,65.0,-99.9,29.72,SW,214,10.0,15.5,35,0.00,,,0.00,526.5,,2013-05-13 16:01:00,
2013-05-13 11:11:00,67.1,-99.9,29.71,WSW,246,10.0,18.9,34,0.00,,,0.00,723.2,,2013-05-13 16:11:00,
2013-05-13 11:21:00,67.7,-99.9,29.70,SW,234,10.0,13.8,33,0.00,,,0.00,519.8,,2013-05-13 16:21:00,
2013-05-13 11:31:00,69.2,-99.9,29.70,SSW,210,10.0,18.9,32,0.00,,,0.00,784.4,,2013-05-13 16:31:00,
2013-05-13 11:41:00,70.7,-99.9,29.70,SSW,198,8.0,10.5,31,0.00,,,0.00,766.7,,2013-05-13 16:41:00,
2013-05-13 11:51:00,72.4,-99.9,29.70,SSW,198,8.0,12.1,30,0.00,,,0.00,710,,2013-05-13 16:51:00,
2013-05-13 12:01:00,74.8,-99.9,29.70,SW,225,9.0,17.2,28,0.00,,,0.00,833,,2013-05-13 17:01:00,
2013-05-13 12:11:00,76.4,-99.9,29.69,SW,232,11.0,17.2,28,0.00,,,0.00,752.6,,2013-05-13 17:11:00,
2013-05-13 12:21:00,78.0,-99.9,29.69,WSW,250,12.0,17.2,29,0.00,,,0.00,827,,2013-05-13 17:21:00,
2013-05-13 12:31:00,78.5,-99.9,29.68,WSW,240,10.0,17.2,30,0.00,,,0.00,760.7,,2013-05-13 17:31:00,
2013-05-13 12:41:00,81.0,-99.9,29.67,SW,223,8.0,10.5,28,0.00,,,0.00,854,,2013-05-13 17:41:00,
2013-05-13 12:51:00,81.7,-99.9,29.67,West,264,12.0,17.2,25,0.00,,,0.00,867,,2013-05-13 17:51:00,
2013-05-13 13:01:00,82.3,-99.9,29.65,WSW,247,12.0,15.5,27,0.00,,,0.00,847,,2013-05-13 18:01:00,
2013-05-13 13:11:00,83.9,-99.9,29.65,West,281,11.0,15.5,24,0.00,,,0.00,835,,2013-05-13 18:11:00,
2013-05-13 13:21:00,85.5,-99.9,29.65,West,281,12.0,17.2,23,0.00,,,0.00,850,,2013-05-13 18:21:00,
2013-05-13 13:31:00,86.3,-99.9,29.64,WSW,255,7.0,10.5,23,0.00,,,0.00,829,,2013-05-13 18:31:00,
2013-05-13 13:41:00,88.8,-99.9,29.64,WNW,289,16.0,23.9,18,0.00,,,0.00,854,,2013-05-13 18:41:00,
2013-05-13 13:51:00,89.3,-99.9,29.64,WSW,255,13.0,20.5,17,0.00,,,0.00,902,,2013-05-13 18:51:00,
2013-05-13 14:01:00,89.0,-99.9,29.64,West,269,13.0,20.5,17,0.00,,,0.00,704.1,,2013-05-13 19:01:00,
2013-05-13 14:11:00,89.4,-99.9,29.63,NW,308,10.0,17.2,18,0.00,,,0.00,827,,2013-05-13 19:11:00,
2013-05-13 14:21:00,90.0,-99.9,29.63,WSW,249,13.0,20.5,18,0.00,,,0.00,862,,2013-05-13 19:21:00,
2013-05-13 14:31:00,91.0,-99.9,29.63,WNW,282,12.0,18.9,16,0.00,,,0.00,769.8,,2013-05-13 19:31:00,
2013-05-13 14:41:00,90.3,-99.9,29.64,WNW,290,20.0,25.6,16,0.00,,,0.00,790.7,,2013-05-13 19:41:00,
2013-05-13 14:51:00,91.4,-99.9,29.64,NNW,342,12.0,23.9,16,0.00,,,0.00,799.9,,2013-05-13 19:51:00,
2013-05-13 15:01:00,90.7,-99.9,29.64,WNW,298,12.0,22.2,16,0.00,,,0.00,724.1,,2013-05-13 20:01:00,
2013-05-13 15:11:00,90.4,-99.9,29.64,West,265,13.0,18.9,16,0.00,,,0.00,687,,2013-05-13 20:11:00,
2013-05-13 15:21:00,89.9,-99.9,29.64,WNW,295,15.0,20.5,16,0.00,,,0.00,715.3,,2013-05-13 20:21:00,
2013-05-13 15:31:00,89.7,-99.9,29.64,NW,317,10.0,15.5,17,0.00,,,0.00,590.5,,2013-05-13 20:31:00,
2013-05-13 15:41:00,90.3,-99.9,29.64,WNW,297,12.0,20.5,17,0.00,,,0.00,644.9,,2013-05-13 20:41:00,
2013-05-13 15:51:00,89.7,-99.9,29.64,WNW,297,8.0,10.5,18,0.00,,,0.00,613.3,,2013-05-13 20:51:00,
2013-05-13 16:01:00,90.1,-99.9,29.64,WNW,287,14.0,20.5,16,0.00,,,0.00,622.2,,2013-05-13 21:01:00,
2013-05-13 16:11:00,89.9,-99.9,29.64,NW,315,14.0,20.5,16,0.00,,,0.00,573,,2013-05-13 21:11:00,
2013-05-13 16:21:00,89.4,-99.9,29.65,WNW,282,11.0,18.9,17,0.00,,,0.00,575.2,,2013-05-13 21:21:00,
2013-05-13 16:31:00,90.1,-99.9,29.65,WNW,300,12.0,22.2,15,0.00,,,0.00,552.1,,2013-05-13 21:31:00,
2013-05-13 16:41:00,89.5,-99.9,29.64,NW,305,11.0,18.9,15,0.00,,,0.00,570.3,,2013-05-13 21:41:00,
2013-05-13 16:51:00,89.7,-99.9,29.64,WNW,282,9.0,13.8,17,0.00,,,0.00,507.9,,2013-05-13 21:51:00,
2013-05-13 17:01:00,89.5,-99.9,29.65,West,278,10.0,17.2,17,0.00,,,0.00,527,,2013-05-13 22:01:00,
2013-05-13 17:11:00,89.3,-99.9,29.65,WSW,258,10.0,15.5,16,0.00,,,0.00,517.8,,2013-05-13 22:11:00,
2013-05-13 17:21:00,89.1,-99.9,29.65,West,270,15.0,22.2,16,0.00,,,0.00,422,,2013-05-13 22:21:00,
2013-05-13 17:31:00,89.6,-99.9,29.65,NW,306,10.0,22.2,17,0.00,,,0.00,450.6,,2013-05-13 22:31:00,
2013-05-13 17:41:00,88.7,-99.9,29.65,WNW,288,8.0,13.8,18,0.00,,,0.00,440.9,,2013-05-13 22:41:00,
2013-05-13 17:51:00,88.7,-99.9,29.66,NW,319,15.0,22.2,18,0.00,,,0.00,403.5,,2013-05-13 22:51:00,
2013-05-13 18:01:00,88.8,-99.9,29.65,West,271,10.0,17.2,18,0.00,,,0.00,341.2,,2013-05-13 23:01:00,
2013-05-13 18:11:00,88.0,-99.9,29.65,WNW,303,8.0,15.5,18,0.00,,,0.00,269,,2013-05-13 23:11:00,
2013-05-13 18:21:00,87.8,-99.9,29.66,WNW,282,13.0,22.2,18,0.00,,,0.00,309.2,,2013-05-13 23:21:00,
2013-05-13 18:31:00,87.7,-99.9,29.66,NW,316,13.0,18.9,18,0.00,,,0.00,271,,2013-05-13 23:31:00,
2013-05-13 18:41:00,88.1,-99.9,29.65,NW,323,12.0,22.2,18,0.00,,,0.00,276.6,,2013-05-13 23:41:00,
2013-05-13 18:51:00,88.0,-99.9,29.66,West,279,12.0,18.9,17,0.00,,,0.00,225.6,,2013-05-13 23:51:00,
2013-05-13 19:01:00,87.6,-99.9,29.66,West,260,9.0,17.2,17,0.00,,,0.00,204.1,,2013-05-14 00:01:00,
2013-05-13 19:11:00,87.3,-99.9,29.66,WNW,287,14.0,18.9,18,0.00,,,0.00,150.5,,2013-05-14 00:11:00,
2013-05-13 19:21:00,86.4,-99.9,29.66,WSW,243,9.0,15.5,18,0.00,,,0.00,120.5,,2013-05-14 00:21:00,
2013-05-13 19:31:00,86.3,-99.9,29.66,WNW,298,6.0,10.5,18,0.00,,,0.00,125.2,,2013-05-14 00:31:00,
2013-05-13 19:41:00,85.4,-99.9,29.66,NW,322,7.0,10.5,19,0.00,,,0.00,76.46,,2013-05-14 00:41:00,
2013-05-13 19:51:00,85.0,-99.9,29.66,West,263,6.0,10.5,20,0.00,,,0.00,86.3,,2013-05-14 00:51:00,
2013-05-13 20:01:00,84.3,-99.9,29.66,NNW,331,5.0,8.8,20,0.00,,,0.00,64.1,,2013-05-14 01:01:00,
2013-05-13 20:11:00,83.5,-99.9,29.66,NW,326,4.0,5.4,20,0.00,,,0.00,59.2,,2013-05-14 01:11:00,
2013-05-13 20:21:00,82.7,-99.9,29.66,NNW,338,3.0,5.4,21,0.00,,,0.00,40.65,,2013-05-14 01:21:00,
2013-05-13 20:31:00,81.5,-99.9,29.67,WNW,292,2.0,3.8,22,0.00,,,0.00,31.13,,2013-05-14 01:31:00,
2013-05-13 20:41:00,80.2,-99.9,29.67,WNW,296,0.0,2.1,23,0.00,,,0.00,21.85,,2013-05-14 01:41:00,
2013-05-13 20:51:00,78.6,-99.9,29.67,NNW,339,0.0,0.0,24,0.00,,,0.00,10.98,,2013-05-14 01:51:00,
2013-05-13 21:01:00,77.3,-99.9,29.67,WNW,294,2.0,3.8,25,0.00,,,0.00,5.476,,2013-05-14 02:01:00,
2013-05-13 21:11:00,74.7,-99.9,29.67,SSW,204,0.0,0.0,28,0.00,,,0.00,3.768,,2013-05-14 02:11:00,
2013-05-13 21:21:00,73.1,-99.9,29.67,South,182,0.0,0.0,30,0.00,,,0.00,0.47,,2013-05-14 02:21:00,
2013-05-13 21:31:00,71.1,-99.9,29.67,SSW,192,0.0,2.1,32,0.00,,,0.00,0,,2013-05-14 02:31:00,
2013-05-13 21:41:00,69.2,-99.9,29.67,South,172,0.0,0.0,35,0.00,,,0.00,0,,2013-05-14 02:41:00,
2013-05-13 21:51:00,67.0,-99.9,29.67,SSW,213,0.0,0.0,39,0.00,,,0.00,0,,2013-05-14 02:51:00,
2013-05-13 22:01:00,65.3,-99.9,29.67,SSW,207,0.0,0.0,41,0.00,,,0.00,0,,2013-05-14 03:01:00,
2013-05-13 22:11:00,64.5,-99.9,29.67,SW,219,0.0,0.0,40,0.00,,,0.00,0,,2013-05-14 03:11:00,
2013-05-13 22:21:00,63.7,-99.9,29.67,SSW,207,0.0,0.0,42,0.00,,,0.00,0,,2013-05-14 03:21:00,
2013-05-13 22:31:00,62.1,-99.9,29.67,SSW,197,0.0,0.0,44,0.00,,,0.00,0,,2013-05-14 03:31:00,
2013-05-13 22:41:00,61.5,-99.9,29.67,SSW,195,0.0,0.0,45,0.00,,,0.00,0,,2013-05-14 03:41:00,
2013-05-13 22:51:00,60.3,-99.9,29.67,SW,226,2.0,2.1,48,0.00,,,0.00,0,,2013-05-14 03:51:00,
2013-05-13 23:11:00,58.1,-99.9,29.67,SW,220,0.0,2.1,51,0.00,,,0.00,0,,2013-05-14 04:11:00,
2013-05-13 23:21:00,57.5,-99.9,29.67,SW,226,3.0,3.8,51,0.00,,,0.00,0,,2013-05-14 04:21:00,
2013-05-13 23:31:00,56.7,-99.9,29.67,SW,216,0.0,0.0,54,0.00,,,0.00,0,,2013-05-14 04:31:00,
2013-05-13 23:41:00,56.1,-99.9,29.67,SSW,206,0.0,0.0,54,0.00,,,0.00,0,,2013-05-14 04:41:00,
2013-05-13 23:51:00,55.3,-99.9,29.66,SW,225,2.0,3.8,55,0.00,,,0.00,0.007,,2013-05-14 04:51:00,